sensor_id;sensor_type;location;lat;lon;timestamp;temperature;humidity
31575;DHT22;18182;1.328;103.810;2023-04-24T00:00:22;30.20;99.90
31575;DHT22;18182;1.328;103.810;2023-04-24T00:02:48;30.20;99.90
31575;DHT22;18182;1.328;103.810;2023-04-24T00:05:16;30.20;99.90
31575;DHT22;18182;1.328;103.810;2023-04-24T00:07:43;30.30;99.90
31575;DHT22;18182;1.328;103.810;2023-04-24T00:10:10;30.30;99.90
31575;DHT22;18182;1.328;103.810;2023-04-24T00:12:36;30.30;99.90
31575;DHT22;18182;1.328;103.810;2023-04-24T00:15:03;30.40;99.90
31575;DHT22;18182;1.328;103.810;2023-04-24T00:17:29;30.50;99.90
31575;DHT22;18182;1.328;103.810;2023-04-24T00:19:56;30.50;99.90
31575;DHT22;18182;1.328;103.810;2023-04-24T00:22:26;30.50;99.90
31575;DHT22;18182;1.328;103.810;2023-04-24T00:24:53;30.50;99.90
31575;DHT22;18182;1.328;103.810;2023-04-24T00:27:19;30.50;99.90
31575;DHT22;18182;1.328;103.810;2023-04-24T00:29:45;30.50;99.90
31575;DHT22;18182;1.328;103.810;2023-04-24T00:32:11;30.50;99.90
31575;DHT22;18182;1.328;103.810;2023-04-24T00:34:38;30.50;99.90
31575;DHT22;18182;1.328;103.810;2023-04-24T00:37:04;30.60;99.90
31575;DHT22;18182;1.328;103.810;2023-04-24T00:39:30;30.70;99.90
31575;DHT22;18182;1.328;103.810;2023-04-24T00:41:56;30.80;99.90
31575;DHT22;18182;1.328;103.810;2023-04-24T00:44:23;30.90;99.90
31575;DHT22;18182;1.328;103.810;2023-04-24T00:46:49;30.80;99.90
31575;DHT22;18182;1.328;103.810;2023-04-24T00:49:23;30.90;99.90
31575;DHT22;18182;1.328;103.810;2023-04-24T00:51:49;30.90;99.90
31575;DHT22;18182;1.328;103.810;2023-04-24T00:54:17;31.00;99.90
31575;DHT22;18182;1.328;103.810;2023-04-24T00:56:43;31.10;99.90
31575;DHT22;18182;1.328;103.810;2023-04-24T00:59:11;31.10;99.90
31575;DHT22;18182;1.328;103.810;2023-04-24T01:01:37;31.10;99.90
31575;DHT22;18182;1.328;103.810;2023-04-24T01:04:07;31.10;99.90
31575;DHT22;18182;1.328;103.810;2023-04-24T01:06:33;31.10;99.90
31575;DHT22;18182;1.328;103.810;2023-04-24T01:09:00;31.10;99.90
31575;DHT22;18182;1.328;103.810;2023-04-24T01:11:26;31.10;99.90
31575;DHT22;18182;1.328;103.810;2023-04-24T01:13:52;31.00;99.90
31575;DHT22;18182;1.328;103.810;2023-04-24T01:16:18;31.00;99.90
31575;DHT22;18182;1.328;103.810;2023-04-24T01:18:46;31.10;99.90
31575;DHT22;18182;1.328;103.810;2023-04-24T01:21:13;31.10;99.90
31575;DHT22;18182;1.328;103.810;2023-04-24T01:23:39;31.10;99.90
31575;DHT22;18182;1.328;103.810;2023-04-24T01:26:05;31.10;99.90
31575;DHT22;18182;1.328;103.810;2023-04-24T01:28:31;31.20;99.90
31575;DHT22;18182;1.328;103.810;2023-04-24T01:30:58;31.30;99.90
31575;DHT22;18182;1.328;103.810;2023-04-24T01:33:25;31.40;99.90
31575;DHT22;18182;1.328;103.810;2023-04-24T01:35:51;31.40;99.90
31575;DHT22;18182;1.328;103.810;2023-04-24T01:38:17;31.40;99.90
31575;DHT22;18182;1.328;103.810;2023-04-24T01:40:44;31.40;99.90
31575;DHT22;18182;1.328;103.810;2023-04-24T01:43:11;31.40;99.90
31575;DHT22;18182;1.328;103.810;2023-04-24T01:45:37;31.40;99.90
31575;DHT22;18182;1.328;103.810;2023-04-24T01:48:03;31.30;99.90
31575;DHT22;18182;1.328;103.810;2023-04-24T01:50:30;31.30;99.90
31575;DHT22;18182;1.328;103.810;2023-04-24T01:52:57;31.30;99.90
31575;DHT22;18182;1.328;103.810;2023-04-24T01:55:23;31.30;99.90
31575;DHT22;18182;1.328;103.810;2023-04-24T01:57:49;31.30;99.90
31575;DHT22;18182;1.328;103.810;2023-04-24T02:00:16;31.40;99.90
31575;DHT22;18182;1.328;103.810;2023-04-24T02:02:42;31.40;99.90
31575;DHT22;18182;1.328;103.810;2023-04-24T02:05:08;31.50;99.90
31575;DHT22;18182;1.328;103.810;2023-04-24T02:07:35;31.40;99.90
31575;DHT22;18182;1.328;103.810;2023-04-24T02:10:01;31.50;99.90
31575;DHT22;18182;1.328;103.810;2023-04-24T02:12:27;31.40;99.90
31575;DHT22;18182;1.328;103.810;2023-04-24T02:14:53;31.40;99.90
31575;DHT22;18182;1.328;103.810;2023-04-24T02:17:20;31.40;99.90
31575;DHT22;18182;1.328;103.810;2023-04-24T02:19:46;31.30;99.90
31575;DHT22;18182;1.328;103.810;2023-04-24T02:22:12;31.20;99.90
31575;DHT22;18182;1.328;103.810;2023-04-24T02:24:38;31.30;99.90
31575;DHT22;18182;1.328;103.810;2023-04-24T02:27:04;31.30;99.90
31575;DHT22;18182;1.328;103.810;2023-04-24T02:29:31;31.40;99.90
31575;DHT22;18182;1.328;103.810;2023-04-24T02:31:57;31.40;99.90
31575;DHT22;18182;1.328;103.810;2023-04-24T02:34:23;31.40;99.90
31575;DHT22;18182;1.328;103.810;2023-04-24T02:36:50;31.50;99.90
31575;DHT22;18182;1.328;103.810;2023-04-24T02:39:16;31.50;99.90
31575;DHT22;18182;1.328;103.810;2023-04-24T02:41:42;31.60;99.90
31575;DHT22;18182;1.328;103.810;2023-04-24T02:44:08;31.70;99.90
31575;DHT22;18182;1.328;103.810;2023-04-24T02:46:35;31.70;99.90
31575;DHT22;18182;1.328;103.810;2023-04-24T02:49:01;31.80;99.90
31575;DHT22;18182;1.328;103.810;2023-04-24T02:51:28;31.80;99.90
31575;DHT22;18182;1.328;103.810;2023-04-24T02:53:55;31.80;99.90
31575;DHT22;18182;1.328;103.810;2023-04-24T02:56:21;31.80;99.90
31575;DHT22;18182;1.328;103.810;2023-04-24T02:58:47;31.80;99.90
31575;DHT22;18182;1.328;103.810;2023-04-24T03:01:13;31.80;99.90
31575;DHT22;18182;1.328;103.810;2023-04-24T03:03:40;31.80;99.90
31575;DHT22;18182;1.328;103.810;2023-04-24T03:06:06;31.90;99.90
31575;DHT22;18182;1.328;103.810;2023-04-24T03:08:33;31.90;99.90
31575;DHT22;18182;1.328;103.810;2023-04-24T03:11:00;31.90;99.90
31575;DHT22;18182;1.328;103.810;2023-04-24T03:13:26;32.00;99.90
31575;DHT22;18182;1.328;103.810;2023-04-24T03:15:52;32.00;99.90
31575;DHT22;18182;1.328;103.810;2023-04-24T03:18:19;32.00;99.90
31575;DHT22;18182;1.328;103.810;2023-04-24T03:20:45;31.90;99.90
31575;DHT22;18182;1.328;103.810;2023-04-24T03:23:12;31.90;99.90
31575;DHT22;18182;1.328;103.810;2023-04-24T03:25:38;31.90;99.90
31575;DHT22;18182;1.328;103.810;2023-04-24T03:28:05;31.90;99.90
31575;DHT22;18182;1.328;103.810;2023-04-24T03:30:31;32.00;99.90
31575;DHT22;18182;1.328;103.810;2023-04-24T03:32:57;32.10;99.90
31575;DHT22;18182;1.328;103.810;2023-04-24T03:35:23;32.10;99.90
31575;DHT22;18182;1.328;103.810;2023-04-24T03:37:49;32.20;99.90
31575;DHT22;18182;1.328;103.810;2023-04-24T03:40:15;32.10;99.90
31575;DHT22;18182;1.328;103.810;2023-04-24T03:42:41;32.10;99.90
31575;DHT22;18182;1.328;103.810;2023-04-24T03:45:08;32.10;99.90
31575;DHT22;18182;1.328;103.810;2023-04-24T03:47:34;32.10;99.90
31575;DHT22;18182;1.328;103.810;2023-04-24T03:50:00;32.20;99.90
31575;DHT22;18182;1.328;103.810;2023-04-24T03:52:27;32.30;99.90
31575;DHT22;18182;1.328;103.810;2023-04-24T03:54:53;32.40;99.90
31575;DHT22;18182;1.328;103.810;2023-04-24T03:57:20;32.50;99.90
31575;DHT22;18182;1.328;103.810;2023-04-24T03:59:47;32.50;99.90
31575;DHT22;18182;1.328;103.810;2023-04-24T04:02:13;32.50;99.90
31575;DHT22;18182;1.328;103.810;2023-04-24T04:04:39;32.50;99.90
31575;DHT22;18182;1.328;103.810;2023-04-24T04:07:05;32.60;99.90
31575;DHT22;18182;1.328;103.810;2023-04-24T04:09:33;32.60;99.90
31575;DHT22;18182;1.328;103.810;2023-04-24T04:11:59;32.60;99.90
31575;DHT22;18182;1.328;103.810;2023-04-24T04:14:26;32.60;99.90
31575;DHT22;18182;1.328;103.810;2023-04-24T04:16:52;32.60;99.90
31575;DHT22;18182;1.328;103.810;2023-04-24T04:19:18;32.60;99.90
31575;DHT22;18182;1.328;103.810;2023-04-24T04:21:44;32.60;99.90
31575;DHT22;18182;1.328;103.810;2023-04-24T04:24:11;32.50;99.90
31575;DHT22;18182;1.328;103.810;2023-04-24T04:26:37;32.40;99.90
31575;DHT22;18182;1.328;103.810;2023-04-24T04:29:03;32.30;99.90
31575;DHT22;18182;1.328;103.810;2023-04-24T04:31:30;32.20;99.90
31575;DHT22;18182;1.328;103.810;2023-04-24T04:33:56;32.20;99.90
31575;DHT22;18182;1.328;103.810;2023-04-24T04:36:22;32.30;99.90
31575;DHT22;18182;1.328;103.810;2023-04-24T04:38:49;32.40;99.90
31575;DHT22;18182;1.328;103.810;2023-04-24T04:41:15;32.50;99.90
31575;DHT22;18182;1.328;103.810;2023-04-24T04:43:43;32.60;99.90
31575;DHT22;18182;1.328;103.810;2023-04-24T04:46:09;32.70;99.90
31575;DHT22;18182;1.328;103.810;2023-04-24T04:48:36;32.90;99.90
31575;DHT22;18182;1.328;103.810;2023-04-24T04:51:03;32.90;99.90
31575;DHT22;18182;1.328;103.810;2023-04-24T04:53:29;32.80;99.90
31575;DHT22;18182;1.328;103.810;2023-04-24T04:55:55;32.80;99.90
31575;DHT22;18182;1.328;103.810;2023-04-24T04:58:22;32.70;99.90
31575;DHT22;18182;1.328;103.810;2023-04-24T05:00:48;32.60;99.90
31575;DHT22;18182;1.328;103.810;2023-04-24T05:03:14;32.50;99.90
31575;DHT22;18182;1.328;103.810;2023-04-24T05:05:41;32.50;99.90
31575;DHT22;18182;1.328;103.810;2023-04-24T05:08:07;32.40;99.90
31575;DHT22;18182;1.328;103.810;2023-04-24T05:10:34;32.30;99.90
31575;DHT22;18182;1.328;103.810;2023-04-24T05:13:02;32.30;99.90
31575;DHT22;18182;1.328;103.810;2023-04-24T05:15:29;32.20;99.90
31575;DHT22;18182;1.328;103.810;2023-04-24T05:17:56;32.10;99.90
31575;DHT22;18182;1.328;103.810;2023-04-24T05:20:22;31.90;99.90
31575;DHT22;18182;1.328;103.810;2023-04-24T05:22:48;31.70;99.90
31575;DHT22;18182;1.328;103.810;2023-04-24T05:25:14;31.20;99.90
31575;DHT22;18182;1.328;103.810;2023-04-24T05:27:40;30.90;99.90
31575;DHT22;18182;1.328;103.810;2023-04-24T05:30:07;30.70;99.90
31575;DHT22;18182;1.328;103.810;2023-04-24T05:32:33;30.70;99.90
31575;DHT22;18182;1.328;103.810;2023-04-24T05:34:59;30.60;99.90
31575;DHT22;18182;1.328;103.810;2023-04-24T05:37:25;30.60;99.90
31575;DHT22;18182;1.328;103.810;2023-04-24T05:39:51;30.60;99.90
31575;DHT22;18182;1.328;103.810;2023-04-24T05:42:17;30.50;99.90
31575;DHT22;18182;1.328;103.810;2023-04-24T05:44:44;30.50;99.90
31575;DHT22;18182;1.328;103.810;2023-04-24T05:47:10;30.60;99.90
31575;DHT22;18182;1.328;103.810;2023-04-24T05:49:36;30.60;99.90
31575;DHT22;18182;1.328;103.810;2023-04-24T05:52:02;30.60;99.90
31575;DHT22;18182;1.328;103.810;2023-04-24T05:54:30;30.60;99.90
31575;DHT22;18182;1.328;103.810;2023-04-24T05:56:56;30.60;99.90
31575;DHT22;18182;1.328;103.810;2023-04-24T05:59:22;30.60;99.90
31575;DHT22;18182;1.328;103.810;2023-04-24T06:01:48;30.70;99.90
31575;DHT22;18182;1.328;103.810;2023-04-24T06:04:14;30.70;99.90
31575;DHT22;18182;1.328;103.810;2023-04-24T06:06:40;30.70;99.90
31575;DHT22;18182;1.328;103.810;2023-04-24T06:09:06;30.70;99.90
31575;DHT22;18182;1.328;103.810;2023-04-24T06:11:32;30.70;99.90
31575;DHT22;18182;1.328;103.810;2023-04-24T06:13:59;30.70;99.90
31575;DHT22;18182;1.328;103.810;2023-04-24T06:16:25;30.60;99.90
31575;DHT22;18182;1.328;103.810;2023-04-24T06:18:51;30.60;99.90
31575;DHT22;18182;1.328;103.810;2023-04-24T06:21:17;30.60;99.90
31575;DHT22;18182;1.328;103.810;2023-04-24T06:23:43;30.70;99.90
31575;DHT22;18182;1.328;103.810;2023-04-24T06:26:11;30.70;99.90
31575;DHT22;18182;1.328;103.810;2023-04-24T06:28:38;30.90;99.90
31575;DHT22;18182;1.328;103.810;2023-04-24T06:31:04;31.00;99.90
31575;DHT22;18182;1.328;103.810;2023-04-24T06:33:30;31.10;99.90
31575;DHT22;18182;1.328;103.810;2023-04-24T06:35:56;31.30;99.90
31575;DHT22;18182;1.328;103.810;2023-04-24T06:38:22;31.50;99.90
31575;DHT22;18182;1.328;103.810;2023-04-24T06:40:48;31.60;99.90
31575;DHT22;18182;1.328;103.810;2023-04-24T06:43:14;31.60;99.90
31575;DHT22;18182;1.328;103.810;2023-04-24T06:45:40;31.70;99.90
31575;DHT22;18182;1.328;103.810;2023-04-24T06:48:08;31.70;99.90
31575;DHT22;18182;1.328;103.810;2023-04-24T06:50:34;31.80;99.90
31575;DHT22;18182;1.328;103.810;2023-04-24T06:53:01;31.80;99.90
31575;DHT22;18182;1.328;103.810;2023-04-24T06:55:27;31.80;99.90
31575;DHT22;18182;1.328;103.810;2023-04-24T06:57:53;31.80;99.90
31575;DHT22;18182;1.328;103.810;2023-04-24T07:00:19;31.90;99.90
31575;DHT22;18182;1.328;103.810;2023-04-24T07:02:45;31.90;99.90
31575;DHT22;18182;1.328;103.810;2023-04-24T07:05:11;31.80;99.90
31575;DHT22;18182;1.328;103.810;2023-04-24T07:07:38;31.70;99.90
31575;DHT22;18182;1.328;103.810;2023-04-24T07:10:05;31.60;99.90
31575;DHT22;18182;1.328;103.810;2023-04-24T07:12:32;31.50;99.90
31575;DHT22;18182;1.328;103.810;2023-04-24T07:14:58;31.50;99.90
31575;DHT22;18182;1.328;103.810;2023-04-24T07:17:24;31.40;99.90
31575;DHT22;18182;1.328;103.810;2023-04-24T07:19:51;31.50;99.90
31575;DHT22;18182;1.328;103.810;2023-04-24T07:22:17;31.40;99.90
31575;DHT22;18182;1.328;103.810;2023-04-24T07:24:43;31.40;99.90
31575;DHT22;18182;1.328;103.810;2023-04-24T07:27:09;31.50;99.90
31575;DHT22;18182;1.328;103.810;2023-04-24T07:29:36;31.40;99.90
31575;DHT22;18182;1.328;103.810;2023-04-24T07:32:02;31.40;99.90
31575;DHT22;18182;1.328;103.810;2023-04-24T07:34:28;31.40;99.90
31575;DHT22;18182;1.328;103.810;2023-04-24T07:36:54;31.30;99.90
31575;DHT22;18182;1.328;103.810;2023-04-24T07:39:20;31.20;99.90
31575;DHT22;18182;1.328;103.810;2023-04-24T07:41:46;31.20;99.90
31575;DHT22;18182;1.328;103.810;2023-04-24T07:44:12;31.10;99.90
31575;DHT22;18182;1.328;103.810;2023-04-24T07:46:39;31.20;99.90
31575;DHT22;18182;1.328;103.810;2023-04-24T07:49:05;31.20;99.90
31575;DHT22;18182;1.328;103.810;2023-04-24T07:51:32;31.20;99.90
31575;DHT22;18182;1.328;103.810;2023-04-24T07:54:06;31.20;99.90
31575;DHT22;18182;1.328;103.810;2023-04-24T07:56:32;31.20;99.90
31575;DHT22;18182;1.328;103.810;2023-04-24T07:58:59;31.20;99.90
31575;DHT22;18182;1.328;103.810;2023-04-24T08:01:26;31.20;99.90
31575;DHT22;18182;1.328;103.810;2023-04-24T08:03:52;31.20;99.90
31575;DHT22;18182;1.328;103.810;2023-04-24T08:06:19;31.20;99.90
31575;DHT22;18182;1.328;103.810;2023-04-24T08:08:45;31.20;99.90
31575;DHT22;18182;1.328;103.810;2023-04-24T08:11:11;31.10;99.90
31575;DHT22;18182;1.328;103.810;2023-04-24T08:13:37;31.20;99.90
31575;DHT22;18182;1.328;103.810;2023-04-24T08:16:03;31.20;99.90
31575;DHT22;18182;1.328;103.810;2023-04-24T08:18:30;31.20;99.90
31575;DHT22;18182;1.328;103.810;2023-04-24T08:20:56;31.10;99.90
31575;DHT22;18182;1.328;103.810;2023-04-24T08:23:27;31.00;99.90
31575;DHT22;18182;1.328;103.810;2023-04-24T08:25:55;30.90;99.90
31575;DHT22;18182;1.328;103.810;2023-04-24T08:28:21;31.00;99.90
31575;DHT22;18182;1.328;103.810;2023-04-24T08:30:47;31.00;99.90
31575;DHT22;18182;1.328;103.810;2023-04-24T08:33:14;30.90;99.90
31575;DHT22;18182;1.328;103.810;2023-04-24T08:35:40;30.90;99.90
31575;DHT22;18182;1.328;103.810;2023-04-24T08:38:06;31.00;99.90
31575;DHT22;18182;1.328;103.810;2023-04-24T08:40:33;31.00;99.90
31575;DHT22;18182;1.328;103.810;2023-04-24T08:43:00;30.80;99.90
31575;DHT22;18182;1.328;103.810;2023-04-24T08:45:26;30.80;99.90
31575;DHT22;18182;1.328;103.810;2023-04-24T08:47:53;30.70;99.90
31575;DHT22;18182;1.328;103.810;2023-04-24T08:50:22;30.60;99.90
31575;DHT22;18182;1.328;103.810;2023-04-24T08:52:52;30.60;99.90
31575;DHT22;18182;1.328;103.810;2023-04-24T08:55:19;30.70;99.90
31575;DHT22;18182;1.328;103.810;2023-04-24T08:57:50;30.70;99.90
31575;DHT22;18182;1.328;103.810;2023-04-24T09:00:18;30.70;99.90
31575;DHT22;18182;1.328;103.810;2023-04-24T09:02:45;30.70;99.90
31575;DHT22;18182;1.328;103.810;2023-04-24T09:05:12;30.70;99.90
31575;DHT22;18182;1.328;103.810;2023-04-24T09:07:39;30.70;99.90
31575;DHT22;18182;1.328;103.810;2023-04-24T09:10:05;30.70;99.90
31575;DHT22;18182;1.328;103.810;2023-04-24T09:12:32;30.70;99.90
31575;DHT22;18182;1.328;103.810;2023-04-24T09:14:58;30.70;99.90
31575;DHT22;18182;1.328;103.810;2023-04-24T09:17:26;30.70;99.90
31575;DHT22;18182;1.328;103.810;2023-04-24T09:19:53;30.70;99.90
31575;DHT22;18182;1.328;103.810;2023-04-24T09:22:20;30.60;99.90
31575;DHT22;18182;1.328;103.810;2023-04-24T09:24:46;30.50;99.90
31575;DHT22;18182;1.328;103.810;2023-04-24T09:27:12;30.50;99.90
31575;DHT22;18182;1.328;103.810;2023-04-24T09:29:38;30.40;99.90
31575;DHT22;18182;1.328;103.810;2023-04-24T09:32:17;30.30;99.90
31575;DHT22;18182;1.328;103.810;2023-04-24T09:34:43;30.20;99.90
31575;DHT22;18182;1.328;103.810;2023-04-24T09:37:18;30.20;99.90
31575;DHT22;18182;1.328;103.810;2023-04-24T09:40:10;30.00;99.90
31575;DHT22;18182;1.328;103.810;2023-04-24T09:42:37;30.00;99.90
31575;DHT22;18182;1.328;103.810;2023-04-24T09:45:04;29.90;99.90
31575;DHT22;18182;1.328;103.810;2023-04-24T09:47:37;29.80;99.90
31575;DHT22;18182;1.328;103.810;2023-04-24T09:50:10;29.80;99.90
31575;DHT22;18182;1.328;103.810;2023-04-24T09:52:39;29.60;99.90
31575;DHT22;18182;1.328;103.810;2023-04-24T09:55:39;29.60;99.90
31575;DHT22;18182;1.328;103.810;2023-04-24T09:57:59;29.60;99.90
31575;DHT22;18182;1.328;103.810;2023-04-24T10:00:31;29.70;99.90
31575;DHT22;18182;1.328;103.810;2023-04-24T10:02:58;29.70;99.90
31575;DHT22;18182;1.328;103.810;2023-04-24T10:05:28;29.70;99.90
31575;DHT22;18182;1.328;103.810;2023-04-24T10:08:08;29.70;99.90
31575;DHT22;18182;1.328;103.810;2023-04-24T10:10:37;29.70;99.90
31575;DHT22;18182;1.328;103.810;2023-04-24T10:13:04;29.80;99.90
31575;DHT22;18182;1.328;103.810;2023-04-24T10:15:30;29.80;99.90
31575;DHT22;18182;1.328;103.810;2023-04-24T10:17:58;29.80;99.90
31575;DHT22;18182;1.328;103.810;2023-04-24T10:20:25;29.80;99.90
31575;DHT22;18182;1.328;103.810;2023-04-24T10:22:52;29.80;99.90
31575;DHT22;18182;1.328;103.810;2023-04-24T10:25:22;29.80;99.90
31575;DHT22;18182;1.328;103.810;2023-04-24T10:27:49;29.80;99.90
31575;DHT22;18182;1.328;103.810;2023-04-24T10:30:15;29.80;99.90
31575;DHT22;18182;1.328;103.810;2023-04-24T10:32:42;29.90;99.90
31575;DHT22;18182;1.328;103.810;2023-04-24T10:35:12;29.90;99.90
31575;DHT22;18182;1.328;103.810;2023-04-24T10:37:45;29.80;99.90
31575;DHT22;18182;1.328;103.810;2023-04-24T10:40:16;29.80;99.90
31575;DHT22;18182;1.328;103.810;2023-04-24T10:42:42;29.80;99.90
31575;DHT22;18182;1.328;103.810;2023-04-24T10:45:16;29.90;99.90
31575;DHT22;18182;1.328;103.810;2023-04-24T10:47:42;29.90;99.90
31575;DHT22;18182;1.328;103.810;2023-04-24T10:50:13;30.00;99.90
31575;DHT22;18182;1.328;103.810;2023-04-24T10:52:48;30.10;99.90
31575;DHT22;18182;1.328;103.810;2023-04-24T10:56:03;30.20;99.90
31575;DHT22;18182;1.328;103.810;2023-04-24T10:58:09;30.20;99.90
31575;DHT22;18182;1.328;103.810;2023-04-24T11:00:37;30.20;99.90
31575;DHT22;18182;1.328;103.810;2023-04-24T11:03:07;30.20;99.90
31575;DHT22;18182;1.328;103.810;2023-04-24T11:10:58;30.20;99.90
31575;DHT22;18182;1.328;103.810;2023-04-24T11:13:25;30.30;99.90
31575;DHT22;18182;1.328;103.810;2023-04-24T11:21:32;30.20;99.90
31575;DHT22;18182;1.328;103.810;2023-04-24T11:23:58;30.10;99.90
31575;DHT22;18182;1.328;103.810;2023-04-24T11:26:24;30.10;99.90
31575;DHT22;18182;1.328;103.810;2023-04-24T11:28:55;30.20;99.90
31575;DHT22;18182;1.328;103.810;2023-04-24T11:31:39;30.20;99.90
31575;DHT22;18182;1.328;103.810;2023-04-24T11:34:10;30.20;99.90
31575;DHT22;18182;1.328;103.810;2023-04-24T11:36:36;30.20;99.90
31575;DHT22;18182;1.328;103.810;2023-04-24T11:39:02;30.30;99.90
31575;DHT22;18182;1.328;103.810;2023-04-24T11:41:29;30.30;99.90
31575;DHT22;18182;1.328;103.810;2023-04-24T11:43:55;30.30;99.90
31575;DHT22;18182;1.328;103.810;2023-04-24T11:46:22;30.30;99.90
31575;DHT22;18182;1.328;103.810;2023-04-24T11:48:48;30.30;99.90
31575;DHT22;18182;1.328;103.810;2023-04-24T11:51:14;30.30;99.90
31575;DHT22;18182;1.328;103.810;2023-04-24T11:53:40;30.30;99.90
31575;DHT22;18182;1.328;103.810;2023-04-24T11:56:08;30.30;99.90
31575;DHT22;18182;1.328;103.810;2023-04-24T11:58:35;30.40;99.90
31575;DHT22;18182;1.328;103.810;2023-04-24T12:01:02;30.40;99.90
31575;DHT22;18182;1.328;103.810;2023-04-24T12:03:28;30.40;99.90
31575;DHT22;18182;1.328;103.810;2023-04-24T12:06:27;30.50;99.90
31575;DHT22;18182;1.328;103.810;2023-04-24T12:08:47;30.50;99.90
31575;DHT22;18182;1.328;103.810;2023-04-24T12:11:14;30.50;99.90
31575;DHT22;18182;1.328;103.810;2023-04-24T12:13:41;30.30;99.90
31575;DHT22;18182;1.328;103.810;2023-04-24T12:16:07;30.20;99.90
31575;DHT22;18182;1.328;103.810;2023-04-24T12:18:33;30.20;99.90
31575;DHT22;18182;1.328;103.810;2023-04-24T12:21:18;30.10;99.90
31575;DHT22;18182;1.328;103.810;2023-04-24T12:23:44;30.10;99.90
31575;DHT22;18182;1.328;103.810;2023-04-24T12:26:12;30.10;99.90
31575;DHT22;18182;1.328;103.810;2023-04-24T12:28:38;30.00;99.90
31575;DHT22;18182;1.328;103.810;2023-04-24T12:31:05;30.00;99.90
31575;DHT22;18182;1.328;103.810;2023-04-24T12:33:35;30.00;99.90
31575;DHT22;18182;1.328;103.810;2023-04-24T12:36:02;30.00;99.90
31575;DHT22;18182;1.328;103.810;2023-04-24T12:38:31;30.00;99.90
31575;DHT22;18182;1.328;103.810;2023-04-24T12:41:06;29.90;99.90
31575;DHT22;18182;1.328;103.810;2023-04-24T12:43:32;30.00;99.90
31575;DHT22;18182;1.328;103.810;2023-04-24T12:45:59;30.10;99.90
31575;DHT22;18182;1.328;103.810;2023-04-24T12:48:28;30.10;99.90
31575;DHT22;18182;1.328;103.810;2023-04-24T12:50:55;30.10;99.90
31575;DHT22;18182;1.328;103.810;2023-04-24T12:53:22;30.10;99.90
31575;DHT22;18182;1.328;103.810;2023-04-24T12:55:48;30.10;99.90
31575;DHT22;18182;1.328;103.810;2023-04-24T12:58:19;30.10;99.90
31575;DHT22;18182;1.328;103.810;2023-04-24T13:00:45;30.10;99.90
31575;DHT22;18182;1.328;103.810;2023-04-24T13:03:12;30.10;99.90
31575;DHT22;18182;1.328;103.810;2023-04-24T13:05:38;30.20;99.90
31575;DHT22;18182;1.328;103.810;2023-04-24T13:08:04;30.20;99.90
31575;DHT22;18182;1.328;103.810;2023-04-24T13:10:30;30.30;99.90
31575;DHT22;18182;1.328;103.810;2023-04-24T13:12:57;30.20;99.90
31575;DHT22;18182;1.328;103.810;2023-04-24T13:15:23;30.30;99.90
31575;DHT22;18182;1.328;103.810;2023-04-24T13:17:50;30.30;99.90
31575;DHT22;18182;1.328;103.810;2023-04-24T13:20:16;30.20;99.90
31575;DHT22;18182;1.328;103.810;2023-04-24T13:22:42;30.20;99.90
31575;DHT22;18182;1.328;103.810;2023-04-24T13:25:09;30.20;99.90
31575;DHT22;18182;1.328;103.810;2023-04-24T13:27:37;30.20;99.90
31575;DHT22;18182;1.328;103.810;2023-04-24T13:30:03;30.20;99.90
31575;DHT22;18182;1.328;103.810;2023-04-24T13:32:31;30.20;99.90
31575;DHT22;18182;1.328;103.810;2023-04-24T13:35:01;30.20;99.90
31575;DHT22;18182;1.328;103.810;2023-04-24T13:37:28;30.10;99.90
31575;DHT22;18182;1.328;103.810;2023-04-24T13:39:54;30.10;99.90
31575;DHT22;18182;1.328;103.810;2023-04-24T13:42:20;30.10;99.90
31575;DHT22;18182;1.328;103.810;2023-04-24T13:44:46;30.10;99.90
31575;DHT22;18182;1.328;103.810;2023-04-24T13:47:13;30.10;99.90
31575;DHT22;18182;1.328;103.810;2023-04-24T13:49:39;30.20;99.90
31575;DHT22;18182;1.328;103.810;2023-04-24T13:52:05;30.20;99.90
31575;DHT22;18182;1.328;103.810;2023-04-24T13:54:32;30.20;99.90
31575;DHT22;18182;1.328;103.810;2023-04-24T13:56:58;30.20;99.90
31575;DHT22;18182;1.328;103.810;2023-04-24T13:59:26;30.30;99.90
31575;DHT22;18182;1.328;103.810;2023-04-24T14:01:52;30.20;99.90
31575;DHT22;18182;1.328;103.810;2023-04-24T14:04:18;30.20;99.90
31575;DHT22;18182;1.328;103.810;2023-04-24T14:06:44;30.10;99.90
31575;DHT22;18182;1.328;103.810;2023-04-24T14:09:10;30.10;99.90
31575;DHT22;18182;1.328;103.810;2023-04-24T14:11:36;30.10;99.90
31575;DHT22;18182;1.328;103.810;2023-04-24T14:14:03;30.00;99.90
31575;DHT22;18182;1.328;103.810;2023-04-24T14:16:29;30.00;99.90
31575;DHT22;18182;1.328;103.810;2023-04-24T14:18:56;30.00;99.90
31575;DHT22;18182;1.328;103.810;2023-04-24T14:21:22;30.00;99.90
31575;DHT22;18182;1.328;103.810;2023-04-24T14:23:48;30.00;99.90
31575;DHT22;18182;1.328;103.810;2023-04-24T14:26:14;30.00;99.90
31575;DHT22;18182;1.328;103.810;2023-04-24T14:28:40;30.00;99.90
31575;DHT22;18182;1.328;103.810;2023-04-24T14:31:06;30.10;99.90
31575;DHT22;18182;1.328;103.810;2023-04-24T14:33:33;30.20;99.90
31575;DHT22;18182;1.328;103.810;2023-04-24T14:35:59;30.10;99.90
31575;DHT22;18182;1.328;103.810;2023-04-24T14:38:28;30.20;99.90
31575;DHT22;18182;1.328;103.810;2023-04-24T14:40:55;30.20;99.90
31575;DHT22;18182;1.328;103.810;2023-04-24T14:43:21;30.20;99.90
31575;DHT22;18182;1.328;103.810;2023-04-24T14:45:47;30.20;99.90
31575;DHT22;18182;1.328;103.810;2023-04-24T14:48:13;30.20;99.90
31575;DHT22;18182;1.328;103.810;2023-04-24T14:50:40;30.20;99.90
31575;DHT22;18182;1.328;103.810;2023-04-24T14:53:06;30.20;99.90
31575;DHT22;18182;1.328;103.810;2023-04-24T14:55:32;30.20;99.90
31575;DHT22;18182;1.328;103.810;2023-04-24T14:58:00;30.20;99.90
31575;DHT22;18182;1.328;103.810;2023-04-24T15:00:26;30.20;99.90
31575;DHT22;18182;1.328;103.810;2023-04-24T15:02:52;30.20;99.90
31575;DHT22;18182;1.328;103.810;2023-04-24T15:05:18;30.20;99.90
31575;DHT22;18182;1.328;103.810;2023-04-24T15:07:45;30.20;99.90
31575;DHT22;18182;1.328;103.810;2023-04-24T15:10:11;30.20;99.90
31575;DHT22;18182;1.328;103.810;2023-04-24T15:12:37;30.10;99.90
31575;DHT22;18182;1.328;103.810;2023-04-24T15:15:03;30.10;99.90
31575;DHT22;18182;1.328;103.810;2023-04-24T15:17:30;30.10;99.90
31575;DHT22;18182;1.328;103.810;2023-04-24T15:19:56;30.10;99.90
31575;DHT22;18182;1.328;103.810;2023-04-24T15:22:22;30.20;99.90
31575;DHT22;18182;1.328;103.810;2023-04-24T15:24:48;30.10;99.90